SBRFFNLU

Guest
Details From SBRF - Recife Intl
To FNLU - Luanda 4 De Fevereiro
Flight Number -
Tags Generated
Created
Modified
Stats Distance 2,861 nm / 5,299 km
Max Altitude 0 ft / 0 m
Waypoints 3
Social Downloads 5
Likes 0
Share VATSIM

Download

Looking for another format? Having issues loading an existing format? Contact us
Advertisement - Login to hide

Notes

Generated

Route

SBRF VNA FNLU

ID Type Via Altitude (ft/m) Position (lat/lon) Dist (leg/tot) Name
O SBRF APT - 0 / 0 -8.12516 / -34.92862 - / 0 nm
VNA VOR - 0 / 0 -8.84548 / 13.24748 2859 / 2859 nm LUANDA VOR-DME
O FNLU APT - 0 / 0 -8.85561 / 13.22570 1 / 2861 nm LUANDA 4 DE FEVEREIRO

Altitude Profile

Advertisement - Login to hide

Weather


0- 5 10 15 20 25 30 35+ Temperature / °C

Clouds and Precipitation
Forecast for 2019-05-20 06:00 UTC. Updated 34 minutes ago

Ground ~20,000 ft ~40,000 ft Winds

SBRF

Details ICAO SBRF (REC)
Name Recife Guararapes Intl
Region Brazil
Timezone America/Recife (UTC-3.0)
Stats Elevation 33 ft / 10 m (AMSL)
Location -8.125470° -34.923500°
Runways 1
Magnetic Variation 22.043° W

METAR

SBRF 200400Z 27003KT 9999 SCT023 25/23 Q1013

Decode

TAF

TAF SBRF 192200Z 2000/2024 13008KT 9999 SCT025 TN24/2007Z TX29/2015Z RMK PEC

Decode

Departure Runways

ID Width Length Bearing (true/mag) Surface Threshold Overrun Markings Lighting
18 148 ft / 45 m 10,906 ft / 3,324 m 161.89° / 183.93° ASPHALT 978 ft / 298 m 0 ft / 0 m PREC-APP CENTERLINE EDGE THRESHOLD REIL-OMNI
36 148 ft / 45 m 10,906 ft / 3,324 m 341.89° / 3.93° ASPHALT 0 ft / 0 m 528 ft / 161 m PREC-APP CENTERLINE EDGE THRESHOLD REIL-OMNI

FNLU

Details ICAO FNLU (LAD)
Name LUANDA 4 DE FEVEREIRO
Region Angola
Timezone Africa/Luanda (UTC+1.0)
Stats Elevation 243 ft / 74 m (AMSL)
Location -8.858340° 13.231100°
Runways 2
Magnetic Variation 3.238° W

METAR

FNLU 200400Z 16006KT 8000 FEW018 BKN020 26/23 Q1012 NOSIG

Decode

TAF

TAF FNLU 192250Z 2000/2106 18005KT 9000 BKN020 PROB30 TEMPO 2003/2008 VRB03KT 3000 BR BECMG 2010/2013 26010KT 9999 FEW020 SCT023 TEMPO 2013/2020 FEW022

Decode

Destination Runways

ID Width Length Bearing (true/mag) Surface Threshold Overrun Markings Lighting
05 148 ft / 45 m 12,151 ft / 3,704 m 46.59° / 49.83° ASPHALT 0 ft / 0 m 0 ft / 0 m PREC-APP CENTERLINE EDGE THRESHOLD ALSF-I
07 148 ft / 45 m 8,210 ft / 2,502 m 67.54° / 70.78° ASPHALT 0 ft / 0 m 0 ft / 0 m APP EDGE THRESHOLD
23 148 ft / 45 m 12,151 ft / 3,704 m 226.59° / 229.83° ASPHALT 492 ft / 150 m 0 ft / 0 m PREC-APP CENTERLINE EDGE THRESHOLD CALVERT
25 148 ft / 45 m 8,210 ft / 2,502 m 247.54° / 250.77° ASPHALT 0 ft / 0 m 0 ft / 0 m APP EDGE THRESHOLD

Approach Navaids

Runway Type Ident Frequency Range Bearing (true/mag) Slope Elevation
23 DME ILD 110.30 MHz 18 nm / 33 km - - 243 ft / 74 m (AMSL)
23 GS ILD 110.30 MHz 10 nm / 19 km 226.59° / 229.83 ° 3.00° 243 ft / 74 m (AMSL)
23 LOC-ILS ILD 110.30 MHz 18 nm / 33 km 226.59° / 229.83 ° - 243 ft / 74 m (AMSL)

Popular Alternatives